Gustine, California
Current Conditions -  °F | °C
As of 4:45 PM on Thursday 25 Dec 2014 (Local Time) from KMER Reporting Station
Clear Clear  
Wind Chill: 52°   Ceiling: Unl
Heat Index: 52°   Visibility: 10mi
Dew Point: 32°   Wind: 23mph
Humidity: 47%   Direction: 350°N
Pressure: 29.99"   Gusts: 31mph
Location:  37.26°N, 121°W
Report Text: KMER 260045Z 35020G27KT 10SM SKC 11/00 A2999
Loading
Personal Weather Stations






























Interactive Weather Map New forecast layout! Learn more

10-Day Weather Forecast

Advertisements
Track Severe Weather on mobile